| time (UTC) | temp F | wind direction | speed MPH | gust MPH | rain 1hr in | rain 24hr in | rain mn in | humidity % | barometer mb |
| 20260506192506 | 65 | 220 | 5.0 | 12.0 | 0.00 | 0.08 | 0.08 | 86 | 1006.7 |
| 20260506191552 | 64 | 204 | 2.0 | 14.0 | 0.00 | 0.08 | 0.08 | 86 | 1005.9 |
| 20260506190025 | 64 | 213 | 7.0 | 16.0 | 0.00 | 0.08 | 0.08 | 87 | 1006.9 |
| 20260506190009 | 64 | 206 | 3.0 | 16.0 | 0.00 | 0.08 | 0.08 | 87 | 1006.0 |
| 20260506184511 | 64 | 177 | 6.0 | 20.0 | 0.00 | 0.08 | 0.08 | 86 | 1006.1 |
| 20260506183006 | 65 | 180 | 8.0 | 15.0 | 0.01 | 0.08 | 0.08 | 86 | 1006.9 |
| 20260506181521 | 64 | 214 | 5.0 | 15.0 | 0.01 | 0.08 | 0.08 | 87 | 1006.0 |
| 20260506181007 | 64 | 198 | 6.0 | 16.0 | 0.01 | 0.08 | 0.08 | 87 | 1007.1 |
| 20260506180006 | 64 | 234 | 6.0 | 12.0 | 0.01 | 0.08 | 0.08 | 88 | 1006.3 |
| 20260506175503 | 64 | 197 | 4.0 | 12.0 | 0.01 | 0.08 | 0.08 | 88 | 1007.3 |
| 20260506175003 | 64 | 168 | 4.0 | 12.0 | 0.01 | 0.08 | 0.08 | 88 | 1007.3 |
| 20260506174534 | 64 | 175 | 3.0 | 12.0 | 0.01 | 0.08 | 0.08 | 88 | 1006.4 |
| 20260506173030 | 65 | 186 | 4.0 | 10.0 | 0.00 | 0.07 | 0.07 | 88 | 1007.3 |
| 20260506173021 | 65 | 206 | 5.0 | 15.0 | 0.00 | 0.07 | 0.07 | 88 | 1006.5 |
| 20260506172004 | 65 | 175 | 6.0 | 16.0 | 0.01 | 0.07 | 0.07 | 89 | 1007.4 |
| 20260506171535 | 65 | 148 | 4.0 | 14.0 | 0.02 | 0.07 | 0.07 | 89 | 1006.3 |
| 20260506170503 | 65 | 175 | 4.0 | 10.0 | 0.02 | 0.07 | 0.07 | 90 | 1007.1 |
| 20260506170115 | 64 | 175 | 3.0 | 9.0 | 0.03 | 0.07 | 0.07 | 90 | 1006.3 |
| 20260506170025 | 65 | 178 | 4.0 | 11.0 | 0.03 | 0.07 | 0.07 | 91 | 1007.3 |
| 20260506165504 | 64 | 193 | 4.0 | 11.0 | 0.04 | 0.07 | 0.07 | 91 | 1007.4 |
| 20260506165005 | 64 | 175 | 4.0 | 10.0 | 0.04 | 0.07 | 0.07 | 91 | 1007.4 |
| 20260506164004 | 64 | 157 | 5.0 | 9.0 | 0.04 | 0.07 | 0.07 | 90 | 1007.4 |
| 20260506163503 | 64 | 162 | 5.0 | 12.0 | 0.05 | 0.07 | 0.07 | 89 | 1007.7 |
| 20260506162004 | 64 | 178 | 6.0 | 13.0 | 0.05 | 0.06 | 0.06 | 89 | 1008.4 |
| 20260506161523 | 63 | 226 | 6.0 | 10.0 | 0.05 | 0.05 | 0.05 | 88 | 1007.6 |
| 20260506160505 | 64 | 191 | 5.0 | 13.0 | 0.05 | 0.05 | 0.05 | 87 | 1008.8 |
| 20260506154657 | 64 | 134 | 4.0 | 10.0 | 0.03 | 0.03 | 0.03 | 84 | 1008.0 |
| 20260506153037 | 66 | 198 | 8.0 | 15.0 | 0.01 | 0.01 | 0.01 | 79 | 1007.8 |
| 20260506151607 | 66 | 164 | 4.0 | 12.0 | 0.00 | 0.00 | 0.00 | 78 | 1007.6 |
| 20260506151504 | 67 | 199 | 5.0 | 8.0 | 0.00 | 0.00 | 0.00 | 78 | 1008.6 |
| 20260506150013 | 67 | 177 | 6.0 | 18.0 | 0.00 | 0.00 | 0.00 | 76 | 1007.8 |
| 20260506150004 | 67 | 193 | 7.0 | 18.0 | 0.00 | 0.00 | 0.00 | 76 | 1008.8 |
| 20260506144545 | 68 | 175 | 6.0 | 19.0 | 0.00 | 0.00 | 0.00 | 73 | 1007.8 |
| 20260506140025 | 69 | 191 | 7.0 | 16.0 | 0.00 | 0.00 | 0.00 | 73 | 1008.5 |
| 20260506134532 | 68 | 204 | 8.0 | 21.0 | 0.00 | 0.00 | 0.00 | 73 | 1007.7 |
| 20260506133156 | 68 | 213 | 9.0 | 23.0 | 0.00 | 0.00 | 0.00 | 73 | 1007.7 |
| 20260506133003 | 68 | 168 | 9.0 | 17.0 | 0.00 | 0.00 | 0.00 | 73 | 1008.7 |
| 20260506131538 | 68 | 153 | 8.0 | 19.0 | 0.00 | 0.00 | 0.00 | 74 | 1008.0 |
| 20260506131511 | 68 | 196 | 6.0 | 18.0 | 0.00 | 0.00 | 0.00 | 74 | 1008.9 |
| 20260506130027 | 67 | 149 | 7.0 | 19.0 | 0.00 | 0.00 | 0.00 | 74 | 1007.9 |
| 20260506130025 | 68 | 173 | 9.0 | 19.0 | 0.00 | 0.00 | 0.00 | 74 | 1008.9 |
| 20260506125004 | 67 | 196 | 8.0 | 18.0 | 0.00 | 0.00 | 0.00 | 75 | 1008.9 |
| 20260506124516 | 67 | 178 | 6.0 | 18.0 | 0.00 | 0.00 | 0.00 | 75 | 1008.0 |
| 20260506124504 | 67 | 193 | 7.0 | 18.0 | 0.00 | 0.00 | 0.00 | 74 | 1008.9 |
| 20260506123031 | 66 | 248 | 6.0 | 20.0 | 0.00 | 0.00 | 0.00 | 75 | 1007.8 |
| 20260506122504 | 66 | 185 | 9.0 | 27.0 | 0.00 | 0.00 | 0.00 | 75 | 1008.7 |
| 20260506121508 | 66 | 147 | 6.0 | 16.0 | 0.00 | 0.00 | 0.00 | 76 | 1007.8 |
| 20260506120004 | 66 | 181 | 6.0 | 12.0 | 0.00 | 0.00 | 0.00 | 77 | 1008.8 |
| 20260506114613 | 65 | 134 | 5.0 | 19.0 | 0.00 | 0.00 | 0.00 | 77 | 1007.8 |
| 20260506113533 | 66 | 175 | 6.0 | 15.0 | 0.00 | 0.00 | 0.00 | 77 | 1008.9 |
| 20260506113030 | 65 | 180 | 5.0 | 11.0 | 0.00 | 0.00 | 0.00 | 77 | 1007.9 |
| 20260506111648 | 65 | 134 | 7.0 | 16.0 | 0.00 | 0.00 | 0.00 | 78 | 1007.9 |
| 20260506110018 | 65 | 190 | 5.0 | 15.0 | 0.00 | 0.00 | 0.00 | 79 | 1007.8 |
| 20260506105003 | 65 | 176 | 7.0 | 17.0 | 0.00 | 0.00 | 0.00 | 79 | 1008.7 |
| 20260506104531 | 65 | 198 | 8.0 | 17.0 | 0.00 | 0.00 | 0.00 | 80 | 1007.7 |
| 20260506101620 | 64 | 165 | 7.0 | 14.0 | 0.00 | 0.00 | 0.00 | 80 | 1007.6 |
| 20260506100136 | 64 | 154 | 9.0 | 17.0 | 0.00 | 0.00 | 0.00 | 80 | 1007.7 |
| 20260506094551 | 65 | 188 | 6.0 | 14.0 | 0.00 | 0.00 | 0.00 | 79 | 1008.4 |
| 20260506093120 | 65 | 211 | 7.0 | 15.0 | 0.00 | 0.00 | 0.00 | 79 | 1007.6 |
| 20260506092503 | 66 | 183 | 8.0 | 18.0 | 0.00 | 0.00 | 0.00 | 79 | 1008.5 |
| 20260506090126 | 65 | 161 | 9.0 | 16.0 | 0.00 | 0.00 | 0.00 | 79 | 1007.7 |
| 20260506084541 | 65 | 141 | 8.0 | 17.0 | 0.00 | 0.00 | 0.00 | 79 | 1007.8 |
| 20260506084504 | 66 | 191 | 7.0 | 15.0 | 0.00 | 0.00 | 0.00 | 79 | 1008.7 |
| 20260506083004 | 66 | 160 | 6.0 | 16.0 | 0.00 | 0.00 | 0.00 | 79 | 1008.7 |
| 20260506081545 | 65 | 158 | 6.0 | 14.0 | 0.00 | 0.00 | 0.00 | 79 | 1007.8 |
| 20260506080504 | 66 | 161 | 7.0 | 18.0 | 0.00 | 0.00 | 0.00 | 79 | 1008.9 |
| 20260506080113 | 65 | 167 | 9.0 | 18.0 | 0.00 | 0.00 | 0.00 | 79 | 1007.8 |
| 20260506073046 | 66 | 200 | 5.0 | 11.0 | 0.00 | 0.00 | 0.00 | 78 | 1007.9 |
| 20260506073003 | 66 | 161 | 6.0 | 12.0 | 0.00 | 0.00 | 0.00 | 77 | 1008.8 |
| 20260506060504 | 68 | 178 | 6.0 | 15.0 | 0.00 | 0.00 | 0.00 | 73 | 1009.2 |
| 20260506060142 | 68 | 234 | 4.0 | 11.0 | 0.00 | 0.00 | 0.00 | 73 | 1008.3 |
| 20260506043012 | 69 | 184 | 5.0 | 16.0 | 0.00 | 0.00 | 0.00 | 68 | 1008.7 |
| 20260506043004 | 69 | 163 | 7.0 | 16.0 | 0.00 | 0.00 | 0.00 | 68 | 1009.7 |
| 20260506041550 | 69 | 178 | 7.0 | 19.0 | 0.00 | 0.00 | 0.00 | 67 | 1008.7 |
| 20260506040023 | 69 | 183 | 8.0 | 16.0 | 0.00 | 0.00 | 0.00 | 66 | 1008.6 |
| 20260506034601 | 69 | 192 | 6.0 | 17.0 | 0.00 | 0.00 | 0.00 | 66 | 1008.6 |
| 20260506033005 | 70 | 195 | 7.0 | 17.0 | 0.00 | 0.00 | 0.00 | 65 | 1008.5 |
| 20260506032003 | 70 | 172 | 7.0 | 17.0 | 0.00 | 0.00 | 0.00 | 64 | 1009.4 |
| 20260506031549 | 70 | 149 | 5.0 | 17.0 | 0.00 | 0.00 | 0.00 | 64 | 1008.5 |
| 20260506030114 | 70 | 208 | 5.0 | 18.0 | 0.00 | 0.00 | 0.00 | 64 | 1008.6 |
| 20260506030004 | 70 | 166 | 7.0 | 17.0 | 0.00 | 0.00 | 0.00 | 63 | 1009.6 |
| 20260506024547 | 70 | 177 | 4.0 | 15.0 | 0.00 | 0.00 | 0.00 | 64 | 1008.7 |
| 20260506023115 | 70 | 206 | 6.0 | 11.0 | 0.00 | 0.00 | 0.00 | 63 | 1008.7 |
| 20260506021514 | 71 | 173 | 5.0 | 11.0 | 0.00 | 0.00 | 0.00 | 62 | 1008.7 |
| 20260506020524 | 71 | 160 | 6.0 | 16.0 | 0.00 | 0.00 | 0.00 | 62 | 1009.6 |
| 20260506020023 | 71 | 193 | 6.0 | 12.0 | 0.00 | 0.00 | 0.00 | 62 | 1008.7 |
| 20260506020004 | 71 | 166 | 7.0 | 12.0 | 0.00 | 0.00 | 0.00 | 62 | 1009.6 |
| 20260506014529 | 72 | 175 | 6.0 | 15.0 | 0.00 | 0.00 | 0.00 | 61 | 1009.5 |
| 20260506013101 | 72 | 184 | 6.0 | 15.0 | 0.00 | 0.00 | 0.00 | 60 | 1008.5 |
| 20260506011544 | 73 | 143 | 5.0 | 11.0 | 0.00 | 0.00 | 0.00 | 55 | 1008.4 |
| 20260506011504 | 74 | 168 | 5.0 | 12.0 | 0.00 | 0.00 | 0.00 | 55 | 1009.3 |
| 20260506010504 | 74 | 152 | 5.0 | 13.0 | 0.00 | 0.00 | 0.00 | 53 | 1009.0 |
| 20260506010020 | 74 | 192 | 4.0 | 15.0 | 0.00 | 0.00 | 0.00 | 52 | 1008.2 |
| 20260506004601 | 75 | 211 | 5.0 | 10.0 | 0.00 | 0.00 | 0.00 | 49 | 1007.9 |
| 20260506004503 | 76 | 178 | 6.0 | 13.0 | 0.00 | 0.00 | 0.00 | 49 | 1008.8 |
| 20260506003015 | 76 | 150 | 4.0 | 11.0 | 0.00 | 0.00 | 0.00 | 46 | 1007.8 |
| 20260506003007 | 76 | 175 | 6.0 | 15.0 | 0.00 | 0.00 | 0.00 | 46 | 1008.7 |
| 20260506002003 | 77 | 173 | 7.0 | 14.0 | 0.00 | 0.00 | 0.00 | 46 | 1008.5 |
| 20260506001620 | 76 | 173 | 7.0 | 16.0 | 0.00 | 0.00 | 0.00 | 46 | 1007.6 |
| 20260506000157 | 77 | 171 | 4.0 | 9.0 | 0.00 | 0.00 | 0.00 | 45 | 1007.5 |
| 20260505234546 | 77 | 190 | 7.0 | 14.0 | 0.00 | 0.00 | 0.00 | 45 | 1007.4 |
| 20260505234532 | 78 | 196 | 7.0 | 14.0 | 0.00 | 0.00 | 0.00 | 44 | 1008.3 |
| 20260505233504 | 78 | 189 | 8.0 | 17.0 | 0.00 | 0.00 | 0.00 | 45 | 1008.3 |
| 20260505233035 | 78 | 175 | 8.0 | 15.0 | 0.00 | 0.00 | 0.00 | 44 | 1007.3 |
| 20260505233006 | 78 | 183 | 7.0 | 9.0 | 0.00 | 0.00 | 0.00 | 44 | 1008.2 |
| 20260505232535 | 78 | 172 | 8.0 | 21.0 | 0.00 | 0.00 | 0.00 | 45 | 1008.1 |
| 20260505231527 | 78 | 196 | 10.0 | 21.0 | 0.00 | 0.00 | 0.00 | 44 | 1007.1 |
| 20260505231003 | 79 | 192 | 10.0 | 21.0 | 0.00 | 0.00 | 0.00 | 44 | 1008.1 |
| 20260505230524 | 79 | 180 | 10.0 | 21.0 | 0.00 | 0.00 | 0.00 | 43 | 1008.1 |
| 20260505230046 | 79 | 154 | 10.0 | 18.0 | 0.00 | 0.00 | 0.00 | 42 | 1007.0 |
| 20260505224630 | 80 | 211 | 11.0 | 22.0 | 0.00 | 0.00 | 0.00 | 39 | 1006.9 |
| 20260505223101 | 80 | 196 | 12.0 | 28.0 | 0.00 | 0.00 | 0.00 | 37 | 1006.7 |
| 20260505221510 | 81 | 182 | 10.0 | 24.0 | 0.00 | 0.00 | 0.00 | 37 | 1007.7 |
| 20260505221028 | 81 | 187 | 11.0 | 22.0 | 0.00 | 0.00 | 0.00 | 37 | 1007.7 |
| 20260505220031 | 80 | 229 | 11.0 | 22.0 | 0.00 | 0.00 | 0.00 | 36 | 1006.8 |
| 20260505213106 | 81 | 184 | 10.0 | 32.0 | 0.00 | 0.00 | 0.00 | 34 | 1006.4 |
| 20260505211604 | 82 | 266 | 11.0 | 30.0 | 0.00 | 0.00 | 0.00 | 33 | 1006.5 |
| 20260505210015 | 82 | 180 | 8.0 | 29.0 | 0.00 | 0.00 | 0.00 | 32 | 1006.5 |
| 20260505204530 | 82 | 166 | 13.0 | 25.0 | 0.00 | 0.00 | 0.00 | 32 | 1006.3 |
| 20260505203107 | 83 | 256 | 10.0 | 22.0 | 0.00 | 0.00 | 0.00 | 34 | 1006.4 |
| 20260505202504 | 83 | 188 | 7.0 | 12.0 | 0.00 | 0.00 | 0.00 | 34 | 1007.2 |
| 20260505201621 | 82 | 207 | 7.0 | 19.0 | 0.00 | 0.00 | 0.00 | 36 | 1006.4 |
| 20260505201012 | 83 | 207 | 8.0 | 17.0 | 0.00 | 0.00 | 0.00 | 36 | 1007.4 |
| 20260505200024 | 83 | 206 | 10.0 | 23.0 | 0.00 | 0.00 | 0.00 | 36 | 1007.4 |
| 20260505194531 | 82 | 150 | 15.0 | 33.0 | 0.00 | 0.00 | 0.00 | 36 | 1006.7 |
| 20260505193041 | 82 | 193 | 10.0 | 22.0 | 0.00 | 0.00 | 0.00 | 38 | 1006.7 |